Time;durP1;ratioP1;P1;durP2;ratioP2;P2;SDS_P1;SDS_P2;PMS_P1;PMS_P2;Temp;Humidity;BMP_temperature;BMP_pressure;BME280_temperature;BME280_humidity;BME280_pressure;Samples;Min_cycle;Max_cycle;Signal;HPM_P1;HPM_P2
2024/01/23 00:01:20;;;;;;;7.80;1.20;;;;;;;10.62;58.90;98040.47;5037884;28;20673;-70
2024/01/23 00:03:46;;;;;;;4.80;1.40;;;;;;;10.72;58.66;98041.31;5039828;28;20564;-70
2024/01/23 00:06:11;;;;;;;2.73;1.13;;;;;;;10.71;58.45;98037.88;5041027;28;20445;-70
2024/01/23 00:08:37;;;;;;;3.37;1.40;;;;;;;10.50;58.66;98050.22;5043493;28;20297;-70
2024/01/23 00:11:03;;;;;;;1.93;1.10;;;;;;;10.53;58.82;98052.56;5039132;28;20210;-69
2024/01/23 00:13:28;;;;;;;3.37;1.50;;;;;;;10.67;58.48;98054.00;5045218;28;20245;-69
2024/01/23 00:15:54;;;;;;;2.90;1.20;;;;;;;10.64;57.92;98060.34;5038186;28;20445;-70
2024/01/23 00:18:19;;;;;;;5.13;1.70;;;;;;;10.71;58.43;98055.41;5037508;28;20271;-71
2024/01/23 00:20:46;;;;;;;7.77;1.50;;;;;;;10.60;58.41;98053.69;5028309;28;20179;-70
2024/01/23 00:23:12;;;;;;;4.13;1.70;;;;;;;10.67;58.29;98059.25;5033658;28;20198;-70
2024/01/23 00:25:37;;;;;;;3.53;1.60;;;;;;;10.60;58.22;98057.16;5038132;28;20433;-69
2024/01/23 00:28:04;;;;;;;3.00;1.80;;;;;;;10.67;58.12;98052.19;5034154;28;20186;-69
2024/01/23 00:30:29;;;;;;;8.40;2.07;;;;;;;10.72;57.98;98041.31;5035067;28;20538;-70
2024/01/23 00:32:54;;;;;;;4.50;1.77;;;;;;;10.74;57.97;98042.88;5049281;28;20426;-69
2024/01/23 00:35:20;;;;;;;7.53;1.60;;;;;;;10.73;58.01;98049.06;5041740;28;20216;-70
2024/01/23 00:37:45;;;;;;;3.27;1.30;;;;;;;10.72;57.61;98041.31;5034664;28;20740;-71
2024/01/23 00:40:11;;;;;;;2.73;1.40;;;;;;;10.66;57.93;98044.47;5039943;28;20209;-70
2024/01/23 00:42:37;;;;;;;4.80;1.10;;;;;;;10.77;57.69;98047.00;5044801;28;20190;-69
2024/01/23 00:45:03;;;;;;;4.10;1.37;;;;;;;10.75;57.60;98041.06;5038083;28;20445;-69
2024/01/23 00:47:30;;;;;;;4.23;1.27;;;;;;;10.81;57.38;98060.66;5039652;28;20175;-69
2024/01/23 00:49:56;;;;;;;6.50;1.60;;;;;;;10.83;57.15;98054.34;5037075;28;20413;-69
2024/01/23 00:52:21;;;;;;;7.20;1.53;;;;;;;10.86;57.05;98055.88;5033822;28;20868;-69
2024/01/23 00:54:47;;;;;;;8.80;1.50;;;;;;;10.74;56.98;98049.88;5038728;28;20234;-69
2024/01/23 00:57:12;;;;;;;4.10;1.30;;;;;;;10.76;56.93;98047.97;5040341;28;20253;-70
2024/01/23 00:59:38;;;;;;;6.43;1.43;;;;;;;10.78;56.61;98050.44;5035758;28;20188;-69
2024/01/23 01:02:03;;;;;;;3.73;1.43;;;;;;;10.80;56.72;98054.59;5060391;28;20925;-69
2024/01/23 01:04:29;;;;;;;6.00;1.30;;;;;;;10.81;56.68;98068.53;5040448;28;20191;-72
2024/01/23 01:06:54;;;;;;;5.43;1.30;;;;;;;10.82;56.22;98071.03;5034022;28;20547;-70
2024/01/23 01:09:20;;;;;;;6.20;1.40;;;;;;;10.95;56.31;98065.56;5038611;28;20201;-70
2024/01/23 01:11:45;;;;;;;3.20;1.13;;;;;;;11.00;56.29;98066.00;5033335;28;20195;-70
2024/01/23 01:14:10;;;;;;;5.30;1.20;;;;;;;11.03;56.29;98080.63;5044724;28;20288;-71
2024/01/23 01:16:36;;;;;;;8.80;2.03;;;;;;;11.02;56.58;98086.84;5035049;28;20298;-69
2024/01/23 01:19:03;;;;;;;7.67;1.60;;;;;;;11.02;57.04;98110.44;5030855;28;20566;-71
2024/01/23 01:21:29;;;;;;;4.67;1.30;;;;;;;11.04;57.19;98113.78;5029248;28;20180;-71
2024/01/23 01:23:54;;;;;;;7.13;1.40;;;;;;;11.00;57.59;98096.63;5038776;28;20430;-69
2024/01/23 01:26:20;;;;;;;6.30;1.63;;;;;;;10.90;57.95;98110.53;5031455;28;20298;-71
2024/01/23 01:28:45;;;;;;;5.80;1.40;;;;;;;10.72;58.44;98089.34;5036841;28;20187;-70
2024/01/23 01:31:10;;;;;;;3.30;1.40;;;;;;;10.72;58.09;98109.47;5038283;28;20375;-70
2024/01/23 01:33:36;;;;;;;4.00;1.40;;;;;;;10.49;57.97;98082.63;5042624;28;20219;-68
2024/01/23 01:36:03;;;;;;;7.43;1.60;;;;;;;10.45;58.26;98095.16;5027836;28;20202;-69
2024/01/23 01:38:28;;;;;;;4.80;1.17;;;;;;;10.35;58.25;98102.09;5034609;28;20435;-70
2024/01/23 01:40:54;;;;;;;2.83;1.00;;;;;;;10.25;58.44;98109.91;5040145;28;20461;-68
2024/01/23 01:43:29;;;;;;;4.10;1.37;;;;;;;10.32;58.38;98107.59;5041223;28;20198;-69
2024/01/23 01:46:26;;;;;;;4.73;1.13;;;;;;;10.34;58.97;98124.00;5032750;28;20207;-69
2024/01/23 01:48:52;;;;;;;5.97;1.70;;;;;;;10.34;59.04;98129.25;5033467;28;20931;-71
2024/01/23 01:51:20;;;;;;;7.87;2.07;;;;;;;10.38;59.27;98131.53;5036726;28;20474;-69
2024/01/23 01:53:46;;;;;;;4.57;1.10;;;;;;;10.46;59.03;98125.63;5033311;28;20426;-69
2024/01/23 01:56:12;;;;;;;4.83;1.30;;;;;;;10.51;59.05;98126.09;5032184;28;20458;-69
2024/01/23 01:58:42;;;;;;;4.90;1.50;;;;;;;10.52;59.30;98122.50;5033065;28;20505;-70
2024/01/23 02:01:10;;;;;;;4.13;1.20;;;;;;;10.47;59.63;98122.06;5034539;28;20190;-68
2024/01/23 02:03:35;;;;;;;4.03;1.33;;;;;;;10.44;59.35;98122.34;5042518;28;20426;-70
2024/01/23 02:06:02;;;;;;;5.33;1.50;;;;;;;10.50;59.56;98119.19;5036056;28;20452;-70
2024/01/23 02:08:28;;;;;;;3.93;1.23;;;;;;;10.44;59.47;98122.34;5032935;28;20321;-71
2024/01/23 02:10:54;;;;;;;3.70;1.10;;;;;;;10.47;59.61;98127.28;5044630;28;20548;-68
2024/01/23 02:13:20;;;;;;;2.50;1.03;;;;;;;10.52;59.83;98119.06;5036900;28;20198;-69
2024/01/23 02:15:46;;;;;;;5.83;2.33;;;;;;;10.50;59.32;98132.28;5036321;28;20830;-69
2024/01/23 02:18:11;;;;;;;5.23;1.57;;;;;;;10.51;59.01;98133.94;5048604;28;20425;-70
2024/01/23 02:20:37;;;;;;;9.97;1.87;;;;;;;10.38;59.33;98122.84;5042994;28;20264;-68
2024/01/23 02:23:02;;;;;;;5.43;1.50;;;;;;;10.27;59.77;98134.19;5031623;28;20187;-69
2024/01/23 02:25:28;;;;;;;7.50;1.13;;;;;;;10.28;59.59;98149.78;5033685;28;20290;-69
2024/01/23 02:27:53;;;;;;;7.33;1.63;;;;;;;10.33;59.73;98151.19;5029717;28;20241;-69
2024/01/23 02:30:19;;;;;;;2.90;1.20;;;;;;;10.40;59.64;98147.94;5036624;28;20197;-70
2024/01/23 02:32:45;;;;;;;3.27;1.00;;;;;;;10.38;59.73;98162.13;5047712;28;20214;-70
2024/01/23 02:35:10;;;;;;;6.40;1.70;;;;;;;10.37;59.45;98153.44;5043244;28;20441;-70
2024/01/23 02:37:36;;;;;;;3.70;1.60;;;;;;;10.39;59.64;98145.47;5035109;28;20434;-70
2024/01/23 02:40:02;;;;;;;5.90;1.40;;;;;;;10.23;59.58;98148.50;5038879;28;20256;-70
2024/01/23 02:42:28;;;;;;;3.83;1.13;;;;;;;10.32;59.67;98142.50;5035459;28;20195;-73
2024/01/23 02:44:53;;;;;;;9.93;1.83;;;;;;;10.20;59.23;98140.88;5031939;28;20521;-71
2024/01/23 02:47:20;;;;;;;4.37;1.50;;;;;;;10.26;58.92;98141.22;5029833;28;20191;-70
2024/01/23 02:49:45;;;;;;;7.97;1.70;;;;;;;10.08;58.90;98146.19;5031667;28;20195;-71
2024/01/23 02:52:11;;;;;;;7.33;1.90;;;;;;;10.04;58.94;98138.72;5038106;28;20532;-70
2024/01/23 02:54:36;;;;;;;22.43;2.50;;;;;;;10.10;58.77;98141.66;5036644;28;20417;-69
2024/01/23 02:57:02;;;;;;;7.60;1.90;;;;;;;10.11;59.05;98152.94;5030783;28;20223;-71
2024/01/23 02:59:27;;;;;;;13.77;2.70;;;;;;;9.98;59.43;98159.19;5037746;28;20183;-71
2024/01/23 03:01:52;;;;;;;6.40;1.70;;;;;;;10.08;58.83;98174.19;5047754;28;20229;-68
2024/01/23 03:04:18;;;;;;;15.60;2.20;;;;;;;10.15;58.68;98167.47;5036679;28;20326;-69
2024/01/23 03:06:44;;;;;;;5.93;1.60;;;;;;;10.14;58.70;98173.66;5033194;28;20199;-70
2024/01/23 03:09:10;;;;;;;8.97;2.23;;;;;;;10.22;58.50;98171.22;5040604;28;20497;-70
2024/01/23 03:11:38;;;;;;;14.13;2.10;;;;;;;10.26;58.27;98175.28;5044174;28;20214;-69
2024/01/23 03:14:04;;;;;;;12.10;2.37;;;;;;;10.17;57.98;98173.41;5047108;28;20430;-75
2024/01/23 03:16:29;;;;;;;9.10;1.97;;;;;;;10.27;57.62;98182.19;5036876;28;20442;-71
2024/01/23 03:18:55;;;;;;;8.80;2.20;;;;;;;10.34;57.75;98181.66;5043472;28;20250;-69
2024/01/23 03:21:20;;;;;;;10.23;2.60;;;;;;;10.40;57.69;98175.94;5034433;28;20210;-71
2024/01/23 03:23:46;;;;;;;9.20;2.37;;;;;;;10.42;57.17;98174.84;5043202;28;20266;-69
2024/01/23 03:26:11;;;;;;;5.30;1.90;;;;;;;10.41;57.29;98182.84;5031312;28;20215;-71
2024/01/23 03:28:36;;;;;;;14.87;2.13;;;;;;;10.43;57.33;98178.31;5036377;28;20266;-69
2024/01/23 03:31:03;;;;;;;7.70;2.07;;;;;;;10.17;57.12;98189.13;5030603;28;20203;-70
2024/01/23 03:33:29;;;;;;;11.80;2.40;;;;;;;10.27;57.12;98191.84;5039133;28;20215;-70
2024/01/23 03:35:54;;;;;;;20.20;2.60;;;;;;;10.14;56.95;98198.06;5036530;28;20484;-69
2024/01/23 03:38:20;;;;;;;10.37;2.30;;;;;;;10.20;56.99;98191.50;5034732;28;20272;-70
2024/01/23 03:40:45;;;;;;;10.53;2.10;;;;;;;10.15;57.10;98194.47;5042955;28;20782;-69
2024/01/23 03:43:10;;;;;;;11.53;2.00;;;;;;;10.23;57.04;98188.63;5041844;28;20696;-70
2024/01/23 03:45:36;;;;;;;7.57;2.17;;;;;;;10.24;57.77;98200.75;5035007;28;20749;-68
2024/01/23 03:48:03;;;;;;;11.10;1.77;;;;;;;10.24;57.19;98205.19;5033150;28;20189;-69
2024/01/23 03:50:29;;;;;;;12.17;1.70;;;;;;;10.26;56.56;98205.91;5039084;28;20617;-70
2024/01/23 03:52:55;;;;;;;6.17;2.03;;;;;;;10.25;56.97;98210.28;5043402;28;20432;-70
2024/01/23 03:55:21;;;;;;;15.63;2.70;;;;;;;10.29;56.82;98203.84;5035146;28;20458;-69
2024/01/23 03:57:46;;;;;;;10.10;1.80;;;;;;;10.07;56.52;98210.00;5032429;28;20453;-70
2024/01/23 04:00:12;;;;;;;11.03;2.40;;;;;;;10.17;56.84;98204.84;5029309;28;20187;-69
2024/01/23 04:02:38;;;;;;;12.10;2.37;;;;;;;10.19;56.36;98215.19;5037560;28;20890;-68
2024/01/23 04:05:04;;;;;;;13.40;2.13;;;;;;;10.20;55.86;98220.34;5043225;28;20463;-69
2024/01/23 04:07:31;;;;;;;20.03;3.40;;;;;;;10.18;55.38;98219.63;5021055;28;20190;-70
2024/01/23 04:09:57;;;;;;;9.63;2.20;;;;;;;10.26;55.96;98224.25;5043148;28;20508;-69
2024/01/23 04:12:22;;;;;;;17.07;2.60;;;;;;;10.27;55.76;98218.84;5043205;28;21290;-70
2024/01/23 04:14:47;;;;;;;12.00;2.23;;;;;;;10.25;55.29;98222.56;5048297;28;20252;-72
2024/01/23 04:17:13;;;;;;;11.47;2.30;;;;;;;10.30;55.31;98226.47;5044008;28;20191;-72
2024/01/23 04:19:38;;;;;;;13.27;2.60;;;;;;;10.36;55.49;98240.88;5036748;28;20332;-72
2024/01/23 04:22:04;;;;;;;10.27;2.40;;;;;;;10.40;55.95;98251.94;5045342;28;20174;-70
2024/01/23 04:24:29;;;;;;;20.23;2.17;;;;;;;10.32;55.74;98244.69;5034080;28;20226;-69
2024/01/23 04:26:55;;;;;;;9.40;1.83;;;;;;;10.32;56.27;98246.50;5034000;28;20787;-71
2024/01/23 04:29:20;;;;;;;8.90;2.40;;;;;;;10.32;55.95;98243.88;5042306;28;20226;-69
2024/01/23 04:31:45;;;;;;;9.37;1.80;;;;;;;10.27;56.56;98215.44;5040738;28;20207;-69
2024/01/23 04:34:11;;;;;;;14.57;2.37;;;;;;;10.23;56.71;98238.41;5042796;28;20222;-68
2024/01/23 04:36:36;;;;;;;10.43;2.40;;;;;;;10.16;56.85;98247.72;5030476;28;20278;-68
2024/01/23 04:39:02;;;;;;;13.13;2.63;;;;;;;10.19;57.00;98257.97;5052210;28;20190;-68
2024/01/23 04:41:27;;;;;;;12.00;1.83;;;;;;;10.22;56.57;98260.31;5060514;28;20717;-69
2024/01/23 04:43:53;;;;;;;6.77;1.50;;;;;;;10.17;56.83;98266.88;5045825;28;20180;-69
2024/01/23 04:46:18;;;;;;;8.10;1.67;;;;;;;10.17;57.11;98267.72;5046462;28;20273;-69
2024/01/23 04:48:46;;;;;;;16.23;2.40;;;;;;;10.21;57.25;98273.53;5055750;28;20262;-68
2024/01/23 04:51:12;;;;;;;9.37;1.87;;;;;;;10.12;57.63;98273.34;5062020;28;20294;-68
2024/01/23 04:53:37;;;;;;;10.77;2.23;;;;;;;10.08;58.12;98266.69;5043158;28;21033;-69
2024/01/23 04:56:03;;;;;;;8.00;1.97;;;;;;;9.98;58.38;98279.66;5043723;28;20214;-69
2024/01/23 04:58:29;;;;;;;16.33;2.70;;;;;;;9.91;58.56;98270.66;5046268;28;20265;-69
2024/01/23 05:00:55;;;;;;;10.27;2.37;;;;;;;10.02;58.56;98256.69;5045259;28;20266;-69
2024/01/23 05:03:20;;;;;;;8.60;2.33;;;;;;;10.05;58.25;98266.09;5009285;28;20187;-69
2024/01/23 05:05:45;;;;;;;9.30;1.90;;;;;;;9.92;58.74;98264.47;5042540;28;20289;-69
2024/01/23 05:08:11;;;;;;;4.70;1.57;;;;;;;9.89;58.89;98272.56;5048737;28;20217;-68
2024/01/23 05:10:36;;;;;;;5.87;1.70;;;;;;;9.84;59.16;98280.78;5055949;28;20183;-68
2024/01/23 05:13:02;;;;;;;5.77;1.87;;;;;;;9.81;58.99;98286.25;5053149;28;20213;-69
2024/01/23 05:15:27;;;;;;;9.53;1.90;;;;;;;9.84;58.93;98301.72;5039704;28;20759;-70
2024/01/23 05:17:53;;;;;;;6.70;2.20;;;;;;;9.93;59.33;98315.88;5053096;28;20818;-68
2024/01/23 05:20:19;;;;;;;11.13;2.30;;;;;;;9.93;59.13;98338.59;5047973;28;20269;-70
2024/01/23 05:22:45;;;;;;;13.10;1.93;;;;;;;9.84;59.34;98353.25;5019652;28;20179;-70
2024/01/23 05:25:11;;;;;;;6.03;1.50;;;;;;;9.76;59.68;98353.00;5054751;28;20507;-68
2024/01/23 05:27:36;;;;;;;7.17;1.40;;;;;;;9.76;59.66;98353.88;5043602;28;20186;-70
2024/01/23 05:30:06;;;;;;;6.47;1.57;;;;;;;9.72;59.82;98356.81;5049609;28;20441;-71
2024/01/23 05:32:32;;;;;;;5.03;1.80;;;;;;;9.78;59.46;98372.06;5040324;28;20867;-70
2024/01/23 05:34:58;;;;;;;4.87;1.50;;;;;;;9.53;59.52;98360.84;5039131;28;20520;-69
2024/01/23 05:37:25;;;;;;;6.33;1.40;;;;;;;9.79;59.01;98358.03;5054136;28;20449;-69
2024/01/23 05:39:51;;;;;;;5.17;1.50;;;;;;;9.54;58.58;98362.53;5060053;28;20273;-68
2024/01/23 05:42:16;;;;;;;6.37;1.47;;;;;;;9.59;59.40;98386.56;5058777;28;20562;-70
2024/01/23 05:44:41;;;;;;;5.90;1.30;;;;;;;9.70;58.61;98377.06;5041080;28;20270;-70
2024/01/23 05:47:07;;;;;;;3.17;1.30;;;;;;;9.62;58.51;98390.75;5048686;28;20226;-70
2024/01/23 05:49:32;;;;;;;3.20;0.90;;;;;;;9.73;58.70;98388.13;5058677;28;20202;-70
2024/01/23 05:51:58;;;;;;;4.80;1.30;;;;;;;9.56;58.70;98394.66;5049490;28;20906;-71
2024/01/23 05:54:23;;;;;;;5.40;1.40;;;;;;;9.66;58.52;98395.63;5047777;28;20847;-67
2024/01/23 05:56:48;;;;;;;5.67;1.20;;;;;;;9.62;58.31;98394.19;5047280;28;20938;-68
2024/01/23 05:59:15;;;;;;;4.87;0.80;;;;;;;9.63;58.45;98401.09;5056255;28;20218;-68
2024/01/23 06:01:40;;;;;;;5.33;1.50;;;;;;;9.56;58.65;98407.75;5048490;28;20207;-68
2024/01/23 06:04:09;;;;;;;2.53;0.80;;;;;;;9.60;58.38;98414.41;5048814;28;20525;-70
2024/01/23 06:06:39;;;;;;;7.43;1.43;;;;;;;9.48;58.78;98431.03;5038750;28;20225;-69
2024/01/23 06:09:04;;;;;;;4.33;1.20;;;;;;;9.50;58.76;98436.97;5056661;28;20498;-69
2024/01/23 06:11:30;;;;;;;1.93;1.00;;;;;;;9.50;58.88;98452.69;5056062;28;20466;-69
2024/01/23 06:13:55;;;;;;;6.97;1.20;;;;;;;9.48;58.93;98444.97;5064623;28;20190;-69
2024/01/23 06:16:21;;;;;;;2.47;0.90;;;;;;;9.45;59.51;98444.38;5059790;28;20280;-69
2024/01/23 06:18:46;;;;;;;3.93;1.10;;;;;;;9.42;59.21;98455.88;5064777;28;20214;-69
2024/01/23 06:21:12;;;;;;;4.47;1.60;;;;;;;9.32;59.74;98455.75;5057433;28;20190;-68
2024/01/23 06:23:38;;;;;;;2.00;1.10;;;;;;;9.32;59.65;98455.75;5064426;28;20196;-69
2024/01/23 06:26:04;;;;;;;1.20;0.80;;;;;;;9.26;59.80;98469.25;5058380;28;20532;-70
2024/01/23 06:28:29;;;;;;;2.77;0.90;;;;;;;9.28;60.14;98467.38;5055393;28;20205;-70
2024/01/23 06:30:54;;;;;;;3.13;1.13;;;;;;;9.32;59.27;98476.69;5050790;28;20199;-69
2024/01/23 06:33:20;;;;;;;1.60;1.07;;;;;;;9.12;59.93;98474.66;5065118;28;20194;-69
2024/01/23 06:35:45;;;;;;;1.80;1.10;;;;;;;9.26;59.36;98490.19;5047283;28;20203;-68
2024/01/23 06:38:11;;;;;;;5.80;0.90;;;;;;;9.14;59.57;98498.94;5052813;28;20264;-68
2024/01/23 06:40:36;;;;;;;1.10;0.70;;;;;;;9.23;59.44;98511.34;5060805;28;20197;-67
2024/01/23 06:43:02;;;;;;;1.10;0.80;;;;;;;9.22;59.60;98512.28;5052031;28;20233;-68
2024/01/23 06:45:27;;;;;;;4.80;0.90;;;;;;;9.32;59.27;98526.38;5040837;28;20301;-69
2024/01/23 06:47:53;;;;;;;2.37;0.80;;;;;;;9.31;58.96;98537.81;5053327;28;20210;-70
2024/01/23 06:50:18;;;;;;;2.67;0.83;;;;;;;9.38;59.02;98539.00;5059300;28;20187;-69
2024/01/23 06:52:44;;;;;;;2.10;0.77;;;;;;;9.31;59.27;98548.25;5045453;28;20242;-68
2024/01/23 06:55:09;;;;;;;3.00;1.00;;;;;;;9.31;58.57;98548.25;5060264;28;20230;-69
2024/01/23 06:57:34;;;;;;;3.07;1.00;;;;;;;9.34;58.59;98566.34;5060962;28;20199;-70
2024/01/23 07:00:00;;;;;;;7.40;1.90;;;;;;;9.35;59.03;98569.81;5066653;28;20195;-70
2024/01/23 07:02:25;;;;;;;5.17;2.10;;;;;;;9.39;58.70;98573.84;5069245;28;20255;-70
2024/01/23 07:04:51;;;;;;;2.50;1.40;;;;;;;9.41;58.82;98584.22;5075278;28;20206;-69
2024/01/23 07:07:18;;;;;;;2.10;1.60;;;;;;;9.35;58.36;98588.13;5068842;28;20225;-70
2024/01/23 07:09:44;;;;;;;4.07;1.50;;;;;;;9.26;58.26;98587.00;5074838;28;20233;-68
2024/01/23 07:12:09;;;;;;;2.33;1.70;;;;;;;9.21;58.39;98592.56;5065186;28;20453;-71
2024/01/23 07:14:35;;;;;;;2.00;1.40;;;;;;;9.13;59.45;98594.03;5069202;28;20183;-73
2024/01/23 07:17:00;;;;;;;4.20;1.90;;;;;;;9.17;58.74;98611.22;5071511;28;20194;-70
2024/01/23 07:19:25;;;;;;;3.23;1.37;;;;;;;9.21;59.07;98617.88;5065634;28;20192;-70
2024/01/23 07:21:51;;;;;;;2.83;1.03;;;;;;;9.19;59.18;98617.16;5066663;28;20198;-73
2024/01/23 07:24:17;;;;;;;3.40;1.47;;;;;;;9.14;59.05;98614.03;5065990;28;20187;-72
2024/01/23 07:26:42;;;;;;;3.10;1.50;;;;;;;9.16;58.82;98602.50;5068448;28;20211;-69
2024/01/23 07:29:08;;;;;;;5.70;3.17;;;;;;;9.17;58.64;98611.22;5057694;28;20273;-70
2024/01/23 07:31:33;;;;;;;9.77;4.10;;;;;;;9.21;58.49;98615.25;5050530;28;20207;-70
2024/01/23 07:33:59;;;;;;;23.73;8.43;;;;;;;9.01;59.32;98617.50;5049581;28;20193;-69
2024/01/23 07:36:26;;;;;;;15.70;4.37;;;;;;;9.02;59.29;98616.56;5049345;28;20333;-70
2024/01/23 07:38:51;;;;;;;10.20;3.90;;;;;;;8.98;59.22;98625.56;5061780;28;20187;-70
2024/01/23 07:41:17;;;;;;;14.83;4.70;;;;;;;8.97;59.09;98629.13;5048888;28;20517;-70
2024/01/23 07:43:42;;;;;;;6.67;3.30;;;;;;;8.88;59.02;98624.53;5043897;28;20179;-70
2024/01/23 07:46:08;;;;;;;5.80;3.60;;;;;;;8.89;59.64;98632.25;5047894;28;20707;-70
2024/01/23 07:48:33;;;;;;;6.07;2.53;;;;;;;8.90;59.21;98644.41;5038319;28;20191;-70
2024/01/23 07:50:58;;;;;;;2.87;1.93;;;;;;;8.99;59.23;98647.34;5049496;28;20282;-68
2024/01/23 07:53:24;;;;;;;7.90;2.60;;;;;;;9.05;59.23;98657.34;5046635;28;20273;-70
2024/01/23 07:55:50;;;;;;;6.07;2.00;;;;;;;9.04;59.33;98667.00;5045315;28;20788;-70
2024/01/23 07:58:16;;;;;;;7.10;2.30;;;;;;;8.82;58.84;98674.66;5045878;28;20244;-70
2024/01/23 08:00:41;;;;;;;5.97;2.00;;;;;;;8.91;59.56;98685.31;5043679;28;20426;-70
2024/01/23 08:03:07;;;;;;;4.13;2.13;;;;;;;8.86;59.49;98681.31;5042171;28;20565;-70
2024/01/23 08:05:33;;;;;;;9.03;2.03;;;;;;;8.89;60.10;98671.50;5040234;28;20209;-71
2024/01/23 08:07:59;;;;;;;4.50;1.93;;;;;;;8.86;60.51;98678.72;5056515;28;20429;-69
2024/01/23 08:10:24;;;;;;;3.33;2.10;;;;;;;8.90;60.36;98673.16;5043591;28;20439;-69
2024/01/23 08:12:50;;;;;;;3.50;3.00;;;;;;;8.97;60.02;98670.97;5049817;28;20208;-69
2024/01/23 08:15:18;;;;;;;6.07;2.50;;;;;;;8.97;60.17;98678.00;5047888;28;20218;-70
2024/01/23 08:17:44;;;;;;;3.63;1.53;;;;;;;9.08;60.38;98678.06;5040216;28;20430;-70
2024/01/23 08:20:10;;;;;;;2.57;1.30;;;;;;;9.56;59.88;98676.50;5047643;28;20434;-70
2024/01/23 08:22:36;;;;;;;8.70;1.90;;;;;;;9.97;58.59;98689.19;5049587;28;20218;-71
2024/01/23 08:25:01;;;;;;;4.23;1.70;;;;;;;10.52;57.77;98686.09;5047961;28;21001;-68
2024/01/23 08:27:27;;;;;;;4.33;1.50;;;;;;;10.86;55.74;98687.94;5043461;28;20187;-70
2024/01/23 08:29:52;;;;;;;3.73;1.70;;;;;;;11.33;54.58;98686.03;5039270;28;20260;-69
2024/01/23 08:32:17;;;;;;;6.30;2.17;;;;;;;11.48;53.00;98691.84;5033142;28;20290;-70
2024/01/23 08:34:43;;;;;;;3.90;1.90;;;;;;;11.31;53.99;98695.00;5044056;28;20214;-69
2024/01/23 08:37:08;;;;;;;5.47;2.00;;;;;;;11.17;54.07;98704.78;5039886;28;20188;-71
2024/01/23 08:39:34;;;;;;;6.17;2.30;;;;;;;11.09;54.46;98699.25;5052963;28;20194;-70
2024/01/23 08:41:59;;;;;;;4.30;1.50;;;;;;;11.04;54.60;98697.00;5039516;28;20254;-70
2024/01/23 08:44:25;;;;;;;8.27;1.67;;;;;;;10.87;54.13;98695.69;5040448;28;20197;-70
2024/01/23 08:46:50;;;;;;;4.47;1.23;;;;;;;10.90;53.78;98697.22;5040069;28;20207;-70
2024/01/23 08:49:16;;;;;;;5.03;1.53;;;;;;;10.68;54.38;98704.13;5047072;28;20194;-71
2024/01/23 08:51:42;;;;;;;5.77;1.40;;;;;;;10.75;54.80;98701.88;5045099;28;20215;-71
2024/01/23 08:54:07;;;;;;;7.43;1.77;;;;;;;10.65;55.28;98711.38;5045350;28;20567;-71
2024/01/23 08:56:33;;;;;;;7.33;1.70;;;;;;;10.69;55.51;98715.47;5049550;28;20294;-70
2024/01/23 08:58:58;;;;;;;5.53;1.90;;;;;;;10.67;55.54;98714.72;5038503;28;20267;-70
2024/01/23 09:01:24;;;;;;;3.20;1.30;;;;;;;10.51;55.93;98710.63;5036227;28;20179;-71
2024/01/23 09:03:49;;;;;;;8.47;1.53;;;;;;;10.58;56.40;98711.00;5041450;28;20192;-70
2024/01/23 09:06:15;;;;;;;6.67;1.73;;;;;;;10.71;56.10;98716.19;5034818;28;20208;-70
2024/01/23 09:08:42;;;;;;;5.73;1.70;;;;;;;10.85;55.94;98718.56;5046895;28;20183;-71
2024/01/23 09:11:08;;;;;;;4.63;1.60;;;;;;;10.98;55.84;98717.63;5040305;28;20729;-71
2024/01/23 09:13:33;;;;;;;8.10;2.00;;;;;;;10.93;55.38;98725.84;5020801;28;20513;-70
2024/01/23 09:15:59;;;;;;;5.83;1.47;;;;;;;11.00;55.55;98741.97;5061275;28;20267;-70
2024/01/23 09:18:26;;;;;;;9.47;1.83;;;;;;;10.94;55.58;98742.44;5039558;28;20187;-71
2024/01/23 09:20:53;;;;;;;5.90;2.00;;;;;;;10.90;55.71;98747.91;5063515;28;20970;-69
2024/01/23 09:23:18;;;;;;;4.50;1.47;;;;;;;10.87;55.33;98742.91;5047087;28;20958;-71
2024/01/23 09:25:44;;;;;;;3.47;1.30;;;;;;;10.80;55.54;98746.94;5058743;28;20499;-68
2024/01/23 09:28:09;;;;;;;6.63;2.00;;;;;;;10.80;55.08;98749.56;5051265;28;20278;-69
2024/01/23 09:30:35;;;;;;;3.83;1.93;;;;;;;10.94;55.57;98752.94;5048218;28;20644;-70
2024/01/23 09:33:02;;;;;;;6.37;1.53;;;;;;;11.02;55.33;98766.28;5052051;28;20202;-69
2024/01/23 09:35:29;;;;;;;3.73;1.30;;;;;;;11.07;55.12;98774.66;5054206;28;20218;-69
2024/01/23 09:37:54;;;;;;;2.93;1.13;;;;;;;11.07;54.72;98779.91;5040214;28;20498;-69
2024/01/23 09:40:20;;;;;;;1.90;1.10;;;;;;;11.07;54.52;98779.91;5063213;28;20933;-69
2024/01/23 09:42:46;;;;;;;2.40;0.90;;;;;;;11.36;54.56;98782.91;5052018;28;20206;-69
2024/01/23 09:45:15;;;;;;;2.93;0.93;;;;;;;11.71;53.76;98788.16;5044411;28;20707;-69
2024/01/23 09:47:42;;;;;;;3.90;1.30;;;;;;;11.67;53.12;98793.66;5043812;28;20471;-69
2024/01/23 09:50:09;;;;;;;6.67;1.33;;;;;;;11.64;53.41;98793.91;5062245;28;20425;-69
2024/01/23 09:52:35;;;;;;;3.23;1.00;;;;;;;11.58;53.58;98798.81;5058849;28;20465;-69
2024/01/23 09:55:01;;;;;;;4.80;1.40;;;;;;;11.55;53.89;98799.03;5049615;28;20544;-69
2024/01/23 09:57:26;;;;;;;5.77;1.33;;;;;;;11.45;53.69;98799.75;5048201;28;20455;-70
2024/01/23 09:59:52;;;;;;;9.43;1.43;;;;;;;11.43;53.36;98792.94;5052495;28;20195;-71
2024/01/23 10:02:17;;;;;;;2.73;1.07;;;;;;;11.46;53.62;98796.19;5045008;28;20194;-70
2024/01/23 10:04:44;;;;;;;4.13;1.20;;;;;;;11.45;53.33;98801.53;5040439;28;20223;-70
2024/01/23 10:07:10;;;;;;;4.23;1.77;;;;;;;11.41;54.13;98797.47;5047213;28;20222;-71
2024/01/23 10:09:38;;;;;;;8.30;1.97;;;;;;;11.41;54.10;98787.81;5050340;28;20437;-71
2024/01/23 10:12:03;;;;;;;7.60;1.33;;;;;;;11.24;54.74;98799.63;5056817;28;20222;-71
2024/01/23 10:14:29;;;;;;;5.40;1.63;;;;;;;11.42;54.63;98788.63;5040742;28;20422;-69
2024/01/23 10:16:55;;;;;;;4.00;1.30;;;;;;;11.60;54.46;98797.72;5043570;28;20250;-70
2024/01/23 10:19:20;;;;;;;4.23;1.50;;;;;;;11.76;53.66;98789.47;5033878;28;20498;-69
2024/01/23 10:21:46;;;;;;;7.10;2.00;;;;;;;11.75;53.87;98795.66;5048890;28;20187;-71
2024/01/23 10:24:11;;;;;;;13.10;2.13;;;;;;;12.27;53.49;98806.50;5049326;28;20199;-71
2024/01/23 10:26:37;;;;;;;8.13;2.13;;;;;;;12.80;52.65;98785.59;5047635;28;20198;-70
2024/01/23 10:29:02;;;;;;;9.70;2.13;;;;;;;12.59;51.26;98789.88;5031976;28;20635;-69
2024/01/23 10:31:28;;;;;;;4.33;1.70;;;;;;;13.19;51.13;98791.09;5023701;28;20692;-70
2024/01/23 10:33:53;;;;;;;5.77;2.00;;;;;;;13.50;49.38;98799.03;5056774;28;20186;-70
2024/01/23 10:36:20;;;;;;;9.70;1.97;;;;;;;14.15;48.41;98795.22;5052246;28;20218;-70
2024/01/23 10:38:50;;;;;;;6.90;2.10;;;;;;;14.35;47.75;98794.25;5052404;28;20666;-69
2024/01/23 10:41:18;;;;;;;7.53;2.00;;;;;;;14.48;45.75;98787.88;5055793;28;20425;-70
2024/01/23 10:43:46;;;;;;;5.67;1.80;;;;;;;14.99;45.89;98781.47;5042298;28;20436;-70
2024/01/23 10:46:11;;;;;;;12.23;1.80;;;;;;;15.79;44.63;98782.88;5043350;28;20448;-71
2024/01/23 10:48:37;;;;;;;4.70;1.57;;;;;;;16.01;42.72;98772.88;5044000;28;20971;-70
2024/01/23 10:51:15;;;;;;;5.77;1.80;;;;;;;16.36;41.61;98773.88;5039651;28;20561;-71
2024/01/23 10:53:57;;;;;;;5.33;1.57;;;;;;;15.99;41.03;98783.63;5041540;28;20245;-70
2024/01/23 10:56:24;;;;;;;9.07;1.73;;;;;;;15.85;41.89;98776.19;5051510;28;20445;-69
2024/01/23 10:59:00;;;;;;;4.33;1.50;;;;;;;16.58;41.55;98775.25;5047564;28;20436;-70
2024/01/23 11:01:27;;;;;;;5.10;1.80;;;;;;;17.17;40.39;98772.91;5051266;28;20463;-70
2024/01/23 11:03:53;;;;;;;8.20;1.43;;;;;;;17.75;39.16;98777.66;5041355;28;20924;-70
2024/01/23 11:06:23;;;;;;;5.97;1.57;;;;;;;17.27;38.59;98770.13;5033177;28;20453;-70
2024/01/23 11:08:51;;;;;;;7.10;1.67;;;;;;;17.80;38.70;98762.06;5048522;28;20202;-70
2024/01/23 11:11:35;;;;;;;5.47;1.13;;;;;;;17.26;37.59;98760.53;5055332;28;20471;-69
2024/01/23 11:14:12;;;;;;;8.60;1.57;;;;;;;17.64;37.96;98766.31;5041162;28;20509;-69
2024/01/23 11:16:37;;;;;;;2.60;1.30;;;;;;;17.72;36.97;98762.06;5049982;28;20457;-69
2024/01/23 11:19:03;;;;;;;11.00;2.03;;;;;;;17.55;37.25;98758.50;5037947;28;20465;-69
2024/01/23 11:21:28;;;;;;;9.30;2.07;;;;;;;17.59;37.20;98763.34;5036231;28;20236;-69
2024/01/23 11:24:02;;;;;;;4.50;1.47;;;;;;;17.62;37.82;98759.53;5039966;28;20675;-69
2024/01/23 11:26:28;;;;;;;5.70;1.60;;;;;;;18.23;37.36;98768.19;5047192;28;20203;-70
2024/01/23 11:29:04;;;;;;;5.40;1.60;;;;;;;18.32;35.80;98765.53;5053998;28;21012;-71